Terminal Aerodrome Forecast
Issued by NWS Omaha/Valley, NE

Home | Current Version | Previous Version | Text Only | Print | Product List | Glossary On
Versions: 1 2 3 4 5 6 7 8 9 10 11 12 13 14 15 16 17 18 19 20 21 22 23 24 25 26 27 28 29 30 31 32 33 34
000
FTUS43 KOAX 231720
TAFOMA
TAF
KOMA 231720Z 2318/2418 34007KT P6SM SCT010
     FM231900 34007KT P6SM BKN010
     FM232200 34006KT P6SM BKN070
     FM240700 04006KT P6SM BKN025
     FM241200 08007KT 5SM -FZRA OVC015 PROB30 2412/2414 2SM -SN
      OVC003=

USA.gov is the U.S. government's official web portal to all federal, state and local government web resources and services.